LCKA4: Locksburg, AR

Data processed at Fri Mar 09 2018 23:10


All information presented herein is the property of the government of the United States of America and may be revised or deleted at any time without prior notice.
Dissemination of this information without the expressed written consent of the Public Affairs Office, Tulsa District U.S. Army Corps of Engineers is strictly prohibited.
These data are gathered electronically and, as presented, have not undergone any form of quality control. These data are not guaranteed to be valid or correct.
Go to home page.
Go to station list.

Upstream stations:

Downstream station:
Previous Day
Next Day
Current Day
    
SHEF ID:       LCKA4     Saline River near Lockesburg, AR
STATION TYPE:  

               PRECIP     STAGE  RIV-FLOW  BAT-LOAD
                   in        ft       cfs      volt
              Ccp-Rev   Ccp-Rev   Ccp-Rev   Ccp-Rev
(US/Central)
03/07 00:00      0.00      8.58       918     12.95
03/07 01:00      0.00      8.59       920     12.89
03/07 02:00      0.00      8.62       926     12.89
03/07 03:00      0.00      8.64       930     12.89
03/07 04:00      0.00      8.65       932     12.83
03/07 05:00      0.00      8.68       938     12.83
03/07 06:00      0.00      8.69       940     12.83
03/07 07:00      0.00      8.68       938     12.83
03/07 08:00      0.00      8.69       940     12.89
03/07 09:00      0.00      8.70       942     13.59
03/07 10:00      0.00      8.69       940     14.18
03/07 11:00      0.00      8.69       940     14.47
03/07 12:00      0.00      8.69       940     14.41
03/07 13:00      0.00      8.68       938     14.41
03/07 14:00      0.00      8.67       936     14.41
03/07 15:00      0.00      8.66       934     14.35
03/07 16:00      0.00      8.66       934     14.24
03/07 17:00      0.00      8.67       936     14.24
03/07 18:00      0.00      8.69       940     14.24
03/07 19:00      0.00      8.72       946     13.48
03/07 20:00      0.00      8.75       952     13.12
03/07 21:00      0.00      8.77       956     13.00
03/07 22:00      0.00      8.81       964     13.00
03/07 23:00      0.00      8.82       966     12.95